sensor_id;sensor_type;location;lat;lon;timestamp;temperature;humidity
48019;DHT22;33786;48.690;9.562;2024-03-22T00:01:47;6.30;99.90
48019;DHT22;33786;48.690;9.562;2024-03-22T00:04:13;6.20;99.90
48019;DHT22;33786;48.690;9.562;2024-03-22T00:06:43;6.10;99.90
48019;DHT22;33786;48.690;9.562;2024-03-22T00:09:09;6.10;99.90
48019;DHT22;33786;48.690;9.562;2024-03-22T00:11:36;6.00;99.90
48019;DHT22;33786;48.690;9.562;2024-03-22T00:14:02;5.90;99.90
48019;DHT22;33786;48.690;9.562;2024-03-22T00:16:28;5.90;99.90
48019;DHT22;33786;48.690;9.562;2024-03-22T00:18:54;5.80;99.90
48019;DHT22;33786;48.690;9.562;2024-03-22T00:21:21;5.70;99.90
48019;DHT22;33786;48.690;9.562;2024-03-22T00:23:47;5.60;99.90
48019;DHT22;33786;48.690;9.562;2024-03-22T00:26:13;5.50;99.90
48019;DHT22;33786;48.690;9.562;2024-03-22T00:28:39;5.40;99.90
48019;DHT22;33786;48.690;9.562;2024-03-22T00:31:05;5.30;99.90
48019;DHT22;33786;48.690;9.562;2024-03-22T00:33:31;5.30;99.90
48019;DHT22;33786;48.690;9.562;2024-03-22T00:35:57;5.20;99.90
48019;DHT22;33786;48.690;9.562;2024-03-22T00:38:23;5.20;99.90
48019;DHT22;33786;48.690;9.562;2024-03-22T00:40:49;5.20;99.90
48019;DHT22;33786;48.690;9.562;2024-03-22T00:43:15;5.10;99.90
48019;DHT22;33786;48.690;9.562;2024-03-22T00:45:41;5.10;99.90
48019;DHT22;33786;48.690;9.562;2024-03-22T00:48:07;5.00;99.90
48019;DHT22;33786;48.690;9.562;2024-03-22T00:50:33;5.00;99.90
48019;DHT22;33786;48.690;9.562;2024-03-22T00:52:59;4.90;99.90
48019;DHT22;33786;48.690;9.562;2024-03-22T00:55:24;4.90;99.90
48019;DHT22;33786;48.690;9.562;2024-03-22T00:57:51;4.90;99.90
48019;DHT22;33786;48.690;9.562;2024-03-22T01:00:17;4.80;99.90
48019;DHT22;33786;48.690;9.562;2024-03-22T01:02:43;4.70;99.90
48019;DHT22;33786;48.690;9.562;2024-03-22T01:05:09;4.60;99.90
48019;DHT22;33786;48.690;9.562;2024-03-22T01:07:36;4.50;99.90
48019;DHT22;33786;48.690;9.562;2024-03-22T01:10:05;4.50;99.90
48019;DHT22;33786;48.690;9.562;2024-03-22T01:12:31;4.50;99.90
48019;DHT22;33786;48.690;9.562;2024-03-22T01:14:57;4.40;99.90
48019;DHT22;33786;48.690;9.562;2024-03-22T01:17:22;4.50;99.90
48019;DHT22;33786;48.690;9.562;2024-03-22T01:19:48;4.40;99.90
48019;DHT22;33786;48.690;9.562;2024-03-22T01:22:14;4.40;99.90
48019;DHT22;33786;48.690;9.562;2024-03-22T01:24:40;4.40;99.90
48019;DHT22;33786;48.690;9.562;2024-03-22T01:27:06;4.30;99.90
48019;DHT22;33786;48.690;9.562;2024-03-22T01:29:32;4.30;99.90
48019;DHT22;33786;48.690;9.562;2024-03-22T01:31:58;4.30;99.90
48019;DHT22;33786;48.690;9.562;2024-03-22T01:34:24;4.20;99.90
48019;DHT22;33786;48.690;9.562;2024-03-22T01:36:51;4.10;99.90
48019;DHT22;33786;48.690;9.562;2024-03-22T01:39:18;4.00;99.90
48019;DHT22;33786;48.690;9.562;2024-03-22T01:41:47;4.00;99.90
48019;DHT22;33786;48.690;9.562;2024-03-22T01:44:13;4.00;99.90
48019;DHT22;33786;48.690;9.562;2024-03-22T01:46:40;4.00;99.90
48019;DHT22;33786;48.690;9.562;2024-03-22T01:49:12;4.00;99.90
48019;DHT22;33786;48.690;9.562;2024-03-22T01:51:39;4.00;99.90
48019;DHT22;33786;48.690;9.562;2024-03-22T01:54:09;3.90;99.90
48019;DHT22;33786;48.690;9.562;2024-03-22T01:56:38;3.90;99.90
48019;DHT22;33786;48.690;9.562;2024-03-22T01:59:07;4.00;99.90
48019;DHT22;33786;48.690;9.562;2024-03-22T02:01:33;3.80;99.90
48019;DHT22;33786;48.690;9.562;2024-03-22T02:04:01;3.80;99.90
48019;DHT22;33786;48.690;9.562;2024-03-22T02:06:27;3.70;99.90
48019;DHT22;33786;48.690;9.562;2024-03-22T02:08:53;3.70;99.90
48019;DHT22;33786;48.690;9.562;2024-03-22T02:11:19;3.60;99.90
48019;DHT22;33786;48.690;9.562;2024-03-22T02:13:45;3.60;99.90
48019;DHT22;33786;48.690;9.562;2024-03-22T02:16:12;3.50;99.90
48019;DHT22;33786;48.690;9.562;2024-03-22T02:18:38;3.50;99.90
48019;DHT22;33786;48.690;9.562;2024-03-22T02:21:04;3.40;99.90
48019;DHT22;33786;48.690;9.562;2024-03-22T02:23:37;3.40;99.90
48019;DHT22;33786;48.690;9.562;2024-03-22T02:26:04;3.40;99.90
48019;DHT22;33786;48.690;9.562;2024-03-22T02:28:31;3.40;99.90
48019;DHT22;33786;48.690;9.562;2024-03-22T02:31:02;3.30;99.90
48019;DHT22;33786;48.690;9.562;2024-03-22T02:33:28;3.30;99.90
48019;DHT22;33786;48.690;9.562;2024-03-22T02:35:54;3.30;99.90
48019;DHT22;33786;48.690;9.562;2024-03-22T02:38:20;3.30;99.90
48019;DHT22;33786;48.690;9.562;2024-03-22T02:40:47;3.20;99.90
48019;DHT22;33786;48.690;9.562;2024-03-22T02:43:13;3.20;99.90
48019;DHT22;33786;48.690;9.562;2024-03-22T02:45:39;3.20;99.90
48019;DHT22;33786;48.690;9.562;2024-03-22T02:48:06;3.20;99.90
48019;DHT22;33786;48.690;9.562;2024-03-22T02:50:36;3.30;99.90
48019;DHT22;33786;48.690;9.562;2024-03-22T02:53:03;3.30;99.90
48019;DHT22;33786;48.690;9.562;2024-03-22T02:55:29;3.30;99.90
48019;DHT22;33786;48.690;9.562;2024-03-22T02:57:56;3.30;99.90
48019;DHT22;33786;48.690;9.562;2024-03-22T03:00:22;3.40;99.90
48019;DHT22;33786;48.690;9.562;2024-03-22T03:02:49;3.40;99.90
48019;DHT22;33786;48.690;9.562;2024-03-22T03:05:15;3.30;99.90
48019;DHT22;33786;48.690;9.562;2024-03-22T03:07:40;3.40;99.90
48019;DHT22;33786;48.690;9.562;2024-03-22T03:10:07;3.40;99.90
48019;DHT22;33786;48.690;9.562;2024-03-22T03:12:32;3.40;99.90
48019;DHT22;33786;48.690;9.562;2024-03-22T03:14:58;3.30;99.90
48019;DHT22;33786;48.690;9.562;2024-03-22T03:17:24;3.40;99.90
48019;DHT22;33786;48.690;9.562;2024-03-22T03:19:50;3.30;99.90
48019;DHT22;33786;48.690;9.562;2024-03-22T03:22:16;3.30;99.90
48019;DHT22;33786;48.690;9.562;2024-03-22T03:24:43;3.30;99.90
48019;DHT22;33786;48.690;9.562;2024-03-22T03:27:09;3.20;99.90
48019;DHT22;33786;48.690;9.562;2024-03-22T03:29:35;3.20;99.90
48019;DHT22;33786;48.690;9.562;2024-03-22T03:32:00;3.10;99.90
48019;DHT22;33786;48.690;9.562;2024-03-22T03:34:26;3.10;99.90
48019;DHT22;33786;48.690;9.562;2024-03-22T03:36:52;3.10;99.90
48019;DHT22;33786;48.690;9.562;2024-03-22T03:39:18;3.00;99.90
48019;DHT22;33786;48.690;9.562;2024-03-22T03:41:44;2.90;99.90
48019;DHT22;33786;48.690;9.562;2024-03-22T03:44:09;2.90;99.90
48019;DHT22;33786;48.690;9.562;2024-03-22T03:46:35;2.90;99.90
48019;DHT22;33786;48.690;9.562;2024-03-22T03:49:01;2.90;99.90
48019;DHT22;33786;48.690;9.562;2024-03-22T03:51:27;2.80;99.90
48019;DHT22;33786;48.690;9.562;2024-03-22T03:53:53;2.80;99.90
48019;DHT22;33786;48.690;9.562;2024-03-22T03:56:18;2.80;99.90
48019;DHT22;33786;48.690;9.562;2024-03-22T03:58:47;2.80;99.90
48019;DHT22;33786;48.690;9.562;2024-03-22T04:01:13;2.80;99.90
48019;DHT22;33786;48.690;9.562;2024-03-22T04:03:39;2.70;99.90
48019;DHT22;33786;48.690;9.562;2024-03-22T04:06:05;2.60;99.90
48019;DHT22;33786;48.690;9.562;2024-03-22T04:08:31;2.50;99.90
48019;DHT22;33786;48.690;9.562;2024-03-22T04:10:57;2.50;99.90
48019;DHT22;33786;48.690;9.562;2024-03-22T04:13:24;2.50;99.90
48019;DHT22;33786;48.690;9.562;2024-03-22T04:15:50;2.50;99.90
48019;DHT22;33786;48.690;9.562;2024-03-22T04:18:16;2.60;99.90
48019;DHT22;33786;48.690;9.562;2024-03-22T04:20:42;2.60;99.90
48019;DHT22;33786;48.690;9.562;2024-03-22T04:23:09;2.60;99.90
48019;DHT22;33786;48.690;9.562;2024-03-22T04:25:35;2.50;99.90
48019;DHT22;33786;48.690;9.562;2024-03-22T04:28:01;2.60;99.90
48019;DHT22;33786;48.690;9.562;2024-03-22T04:30:27;2.50;99.90
48019;DHT22;33786;48.690;9.562;2024-03-22T04:32:53;2.50;99.90
48019;DHT22;33786;48.690;9.562;2024-03-22T04:35:18;2.50;99.90
48019;DHT22;33786;48.690;9.562;2024-03-22T04:37:44;2.50;99.90
48019;DHT22;33786;48.690;9.562;2024-03-22T04:40:11;2.40;99.90
48019;DHT22;33786;48.690;9.562;2024-03-22T04:42:36;2.40;99.90
48019;DHT22;33786;48.690;9.562;2024-03-22T04:45:02;2.40;99.90
48019;DHT22;33786;48.690;9.562;2024-03-22T04:47:28;2.40;99.90
48019;DHT22;33786;48.690;9.562;2024-03-22T04:49:54;2.30;99.90
48019;DHT22;33786;48.690;9.562;2024-03-22T04:52:20;2.40;99.90
48019;DHT22;33786;48.690;9.562;2024-03-22T04:54:46;2.30;99.90
48019;DHT22;33786;48.690;9.562;2024-03-22T04:57:13;2.40;99.90
48019;DHT22;33786;48.690;9.562;2024-03-22T04:59:39;2.40;99.90
48019;DHT22;33786;48.690;9.562;2024-03-22T05:02:05;2.30;99.90
48019;DHT22;33786;48.690;9.562;2024-03-22T05:04:31;2.30;99.90
48019;DHT22;33786;48.690;9.562;2024-03-22T05:06:56;2.30;99.90
48019;DHT22;33786;48.690;9.562;2024-03-22T05:09:22;2.30;99.90
48019;DHT22;33786;48.690;9.562;2024-03-22T05:11:48;2.30;99.90
48019;DHT22;33786;48.690;9.562;2024-03-22T05:14:18;2.30;99.90
48019;DHT22;33786;48.690;9.562;2024-03-22T05:16:44;2.30;99.90
48019;DHT22;33786;48.690;9.562;2024-03-22T05:19:10;2.30;99.90
48019;DHT22;33786;48.690;9.562;2024-03-22T05:21:36;2.40;99.90
48019;DHT22;33786;48.690;9.562;2024-03-22T05:24:02;2.40;99.90
48019;DHT22;33786;48.690;9.562;2024-03-22T05:26:28;2.50;99.90
48019;DHT22;33786;48.690;9.562;2024-03-22T05:28:57;2.50;99.90
48019;DHT22;33786;48.690;9.562;2024-03-22T05:31:23;2.60;99.90
48019;DHT22;33786;48.690;9.562;2024-03-22T05:33:49;2.70;99.90
48019;DHT22;33786;48.690;9.562;2024-03-22T05:36:15;2.70;99.90
48019;DHT22;33786;48.690;9.562;2024-03-22T05:38:41;2.80;99.90
48019;DHT22;33786;48.690;9.562;2024-03-22T05:41:06;2.90;99.90
48019;DHT22;33786;48.690;9.562;2024-03-22T05:43:32;3.10;99.90
48019;DHT22;33786;48.690;9.562;2024-03-22T05:45:58;3.20;99.90
48019;DHT22;33786;48.690;9.562;2024-03-22T05:48:24;3.40;99.90
48019;DHT22;33786;48.690;9.562;2024-03-22T05:50:50;3.60;99.90
48019;DHT22;33786;48.690;9.562;2024-03-22T05:53:15;3.90;99.90
48019;DHT22;33786;48.690;9.562;2024-03-22T05:55:42;4.50;99.90
48019;DHT22;33786;48.690;9.562;2024-03-22T05:58:08;5.40;99.90
48019;DHT22;33786;48.690;9.562;2024-03-22T06:00:35;6.30;99.90
48019;DHT22;33786;48.690;9.562;2024-03-22T06:03:00;6.90;99.90
48019;DHT22;33786;48.690;9.562;2024-03-22T06:05:26;7.10;99.90
48019;DHT22;33786;48.690;9.562;2024-03-22T06:07:52;7.30;99.90
48019;DHT22;33786;48.690;9.562;2024-03-22T06:10:18;7.40;99.90
48019;DHT22;33786;48.690;9.562;2024-03-22T06:12:44;7.30;99.90
48019;DHT22;33786;48.690;9.562;2024-03-22T06:15:12;7.20;99.90
48019;DHT22;33786;48.690;9.562;2024-03-22T06:17:39;7.00;99.90
48019;DHT22;33786;48.690;9.562;2024-03-22T06:20:05;6.70;99.90
48019;DHT22;33786;48.690;9.562;2024-03-22T06:22:31;6.70;99.90
48019;DHT22;33786;48.690;9.562;2024-03-22T06:24:58;6.70;99.90
48019;DHT22;33786;48.690;9.562;2024-03-22T06:27:24;6.70;99.90
48019;DHT22;33786;48.690;9.562;2024-03-22T06:29:50;7.00;99.90
48019;DHT22;33786;48.690;9.562;2024-03-22T06:32:16;7.50;99.90
48019;DHT22;33786;48.690;9.562;2024-03-22T06:34:42;7.70;99.90
48019;DHT22;33786;48.690;9.562;2024-03-22T06:37:08;7.90;99.90
48019;DHT22;33786;48.690;9.562;2024-03-22T06:39:33;8.00;99.90
48019;DHT22;33786;48.690;9.562;2024-03-22T06:41:59;8.20;99.90
48019;DHT22;33786;48.690;9.562;2024-03-22T06:44:25;8.80;99.90
48019;DHT22;33786;48.690;9.562;2024-03-22T06:46:51;9.90;99.90
48019;DHT22;33786;48.690;9.562;2024-03-22T06:49:17;11.50;99.90
48019;DHT22;33786;48.690;9.562;2024-03-22T06:51:43;13.70;97.60
48019;DHT22;33786;48.690;9.562;2024-03-22T06:54:08;14.60;94.90
48019;DHT22;33786;48.690;9.562;2024-03-22T06:56:34;14.50;94.20
48019;DHT22;33786;48.690;9.562;2024-03-22T06:59:00;14.30;94.30
48019;DHT22;33786;48.690;9.562;2024-03-22T07:01:26;15.20;93.90
48019;DHT22;33786;48.690;9.562;2024-03-22T07:03:52;16.70;91.70
48019;DHT22;33786;48.690;9.562;2024-03-22T07:06:18;18.10;89.70
48019;DHT22;33786;48.690;9.562;2024-03-22T07:08:44;19.10;85.70
48019;DHT22;33786;48.690;9.562;2024-03-22T07:11:10;19.60;84.30
48019;DHT22;33786;48.690;9.562;2024-03-22T07:13:36;20.50;81.60
48019;DHT22;33786;48.690;9.562;2024-03-22T07:16:02;21.40;78.30
48019;DHT22;33786;48.690;9.562;2024-03-22T07:18:28;22.20;76.90
48019;DHT22;33786;48.690;9.562;2024-03-22T07:20:54;22.80;75.40
48019;DHT22;33786;48.690;9.562;2024-03-22T07:23:21;23.40;74.40
48019;DHT22;33786;48.690;9.562;2024-03-22T07:25:47;23.70;73.60
48019;DHT22;33786;48.690;9.562;2024-03-22T07:28:14;24.40;71.30
48019;DHT22;33786;48.690;9.562;2024-03-22T07:30:41;24.80;70.10
48019;DHT22;33786;48.690;9.562;2024-03-22T07:33:10;25.00;69.70
48019;DHT22;33786;48.690;9.562;2024-03-22T07:35:36;24.90;68.70
48019;DHT22;33786;48.690;9.562;2024-03-22T07:38:01;24.90;69.20
48019;DHT22;33786;48.690;9.562;2024-03-22T07:40:27;25.10;68.40
48019;DHT22;33786;48.690;9.562;2024-03-22T07:42:53;25.40;67.90
48019;DHT22;33786;48.690;9.562;2024-03-22T07:45:19;25.90;67.80
48019;DHT22;33786;48.690;9.562;2024-03-22T07:47:45;26.10;66.00
48019;DHT22;33786;48.690;9.562;2024-03-22T07:50:11;26.40;66.60
48019;DHT22;33786;48.690;9.562;2024-03-22T07:52:37;26.50;66.10
48019;DHT22;33786;48.690;9.562;2024-03-22T07:55:03;25.80;66.80
48019;DHT22;33786;48.690;9.562;2024-03-22T07:57:32;25.80;67.20
48019;DHT22;33786;48.690;9.562;2024-03-22T07:59:58;26.60;66.80
48019;DHT22;33786;48.690;9.562;2024-03-22T08:02:24;26.50;67.00
48019;DHT22;33786;48.690;9.562;2024-03-22T08:04:50;27.10;66.60
48019;DHT22;33786;48.690;9.562;2024-03-22T08:07:16;26.30;66.50
48019;DHT22;33786;48.690;9.562;2024-03-22T08:09:41;26.80;65.40
48019;DHT22;33786;48.690;9.562;2024-03-22T08:12:07;27.30;65.00
48019;DHT22;33786;48.690;9.562;2024-03-22T08:14:33;27.20;64.70
48019;DHT22;33786;48.690;9.562;2024-03-22T08:16:59;27.00;65.80
48019;DHT22;33786;48.690;9.562;2024-03-22T08:19:25;26.70;65.00
48019;DHT22;33786;48.690;9.562;2024-03-22T08:21:51;27.00;65.70
48019;DHT22;33786;48.690;9.562;2024-03-22T08:24:18;28.00;64.00
48019;DHT22;33786;48.690;9.562;2024-03-22T08:26:44;28.60;62.80
48019;DHT22;33786;48.690;9.562;2024-03-22T08:29:13;28.60;63.30
48019;DHT22;33786;48.690;9.562;2024-03-22T08:31:40;28.70;62.50
48019;DHT22;33786;48.690;9.562;2024-03-22T08:34:07;28.40;63.60
48019;DHT22;33786;48.690;9.562;2024-03-22T08:36:33;29.10;62.80
48019;DHT22;33786;48.690;9.562;2024-03-22T08:38:59;29.10;62.70
48019;DHT22;33786;48.690;9.562;2024-03-22T08:41:24;28.90;63.20
48019;DHT22;33786;48.690;9.562;2024-03-22T08:43:50;28.30;63.40
48019;DHT22;33786;48.690;9.562;2024-03-22T08:46:16;28.60;63.50
48019;DHT22;33786;48.690;9.562;2024-03-22T08:48:42;28.30;62.80
48019;DHT22;33786;48.690;9.562;2024-03-22T08:51:08;27.40;64.30
48019;DHT22;33786;48.690;9.562;2024-03-22T08:53:34;25.60;67.40
48019;DHT22;33786;48.690;9.562;2024-03-22T08:55:59;25.80;69.50
48019;DHT22;33786;48.690;9.562;2024-03-22T08:58:26;26.20;67.10
48019;DHT22;33786;48.690;9.562;2024-03-22T09:00:52;25.50;68.00
48019;DHT22;33786;48.690;9.562;2024-03-22T09:03:18;26.10;68.60
48019;DHT22;33786;48.690;9.562;2024-03-22T09:05:44;26.40;68.30
48019;DHT22;33786;48.690;9.562;2024-03-22T09:08:09;27.20;68.40
48019;DHT22;33786;48.690;9.562;2024-03-22T09:10:35;27.60;67.30
48019;DHT22;33786;48.690;9.562;2024-03-22T09:13:01;26.90;68.20
48019;DHT22;33786;48.690;9.562;2024-03-22T09:15:27;27.80;64.90
48019;DHT22;33786;48.690;9.562;2024-03-22T09:17:53;26.90;66.40
48019;DHT22;33786;48.690;9.562;2024-03-22T09:20:19;25.20;68.20
48019;DHT22;33786;48.690;9.562;2024-03-22T09:22:46;24.30;71.10
48019;DHT22;33786;48.690;9.562;2024-03-22T09:25:12;24.20;72.70
48019;DHT22;33786;48.690;9.562;2024-03-22T09:27:37;24.00;72.40
48019;DHT22;33786;48.690;9.562;2024-03-22T09:30:04;26.00;69.30
48019;DHT22;33786;48.690;9.562;2024-03-22T09:32:30;28.00;69.10
48019;DHT22;33786;48.690;9.562;2024-03-22T09:34:57;27.80;67.00
48019;DHT22;33786;48.690;9.562;2024-03-22T09:37:23;27.30;66.80
48019;DHT22;33786;48.690;9.562;2024-03-22T09:39:48;27.60;67.50
48019;DHT22;33786;48.690;9.562;2024-03-22T09:42:16;27.30;68.70
48019;DHT22;33786;48.690;9.562;2024-03-22T09:44:48;27.30;66.20
48019;DHT22;33786;48.690;9.562;2024-03-22T09:47:17;27.20;66.30
48019;DHT22;33786;48.690;9.562;2024-03-22T09:49:43;27.80;64.70
48019;DHT22;33786;48.690;9.562;2024-03-22T09:52:14;29.00;64.40
48019;DHT22;33786;48.690;9.562;2024-03-22T09:54:44;29.20;63.50
48019;DHT22;33786;48.690;9.562;2024-03-22T09:57:14;29.70;63.70
48019;DHT22;33786;48.690;9.562;2024-03-22T09:59:42;29.20;63.60
48019;DHT22;33786;48.690;9.562;2024-03-22T10:02:10;28.00;63.20
48019;DHT22;33786;48.690;9.562;2024-03-22T10:04:38;28.50;62.70
48019;DHT22;33786;48.690;9.562;2024-03-22T10:07:04;28.80;64.40
48019;DHT22;33786;48.690;9.562;2024-03-22T10:09:31;28.90;62.20
48019;DHT22;33786;48.690;9.562;2024-03-22T10:11:58;28.30;63.00
48019;DHT22;33786;48.690;9.562;2024-03-22T10:14:24;27.00;64.10
48019;DHT22;33786;48.690;9.562;2024-03-22T10:16:53;26.90;63.00
48019;DHT22;33786;48.690;9.562;2024-03-22T10:19:23;26.00;65.10
48019;DHT22;33786;48.690;9.562;2024-03-22T10:22:04;25.60;66.20
48019;DHT22;33786;48.690;9.562;2024-03-22T10:24:34;25.10;66.70
48019;DHT22;33786;48.690;9.562;2024-03-22T10:27:00;25.10;67.00
48019;DHT22;33786;48.690;9.562;2024-03-22T10:29:26;24.80;67.80
48019;DHT22;33786;48.690;9.562;2024-03-22T10:31:55;25.10;69.00
48019;DHT22;33786;48.690;9.562;2024-03-22T10:34:21;25.30;66.10
48019;DHT22;33786;48.690;9.562;2024-03-22T10:36:49;25.20;65.80
48019;DHT22;33786;48.690;9.562;2024-03-22T10:39:18;25.30;67.40
48019;DHT22;33786;48.690;9.562;2024-03-22T10:41:48;25.60;65.40
48019;DHT22;33786;48.690;9.562;2024-03-22T10:44:14;24.70;66.60
48019;DHT22;33786;48.690;9.562;2024-03-22T10:46:45;24.20;66.80
48019;DHT22;33786;48.690;9.562;2024-03-22T10:49:16;24.50;66.50
48019;DHT22;33786;48.690;9.562;2024-03-22T10:51:57;24.60;64.50
48019;DHT22;33786;48.690;9.562;2024-03-22T10:54:28;24.50;66.10
48019;DHT22;33786;48.690;9.562;2024-03-22T10:56:57;23.90;65.50
48019;DHT22;33786;48.690;9.562;2024-03-22T10:59:23;23.60;67.10
48019;DHT22;33786;48.690;9.562;2024-03-22T11:01:49;23.70;67.90
48019;DHT22;33786;48.690;9.562;2024-03-22T11:04:17;23.90;71.00
48019;DHT22;33786;48.690;9.562;2024-03-22T11:06:50;24.30;66.40
48019;DHT22;33786;48.690;9.562;2024-03-22T11:09:24;23.40;70.10
48019;DHT22;33786;48.690;9.562;2024-03-22T11:11:55;23.90;67.00
48019;DHT22;33786;48.690;9.562;2024-03-22T11:14:22;24.30;64.40
48019;DHT22;33786;48.690;9.562;2024-03-22T11:16:51;23.90;66.00
48019;DHT22;33786;48.690;9.562;2024-03-22T11:19:18;23.60;68.20
48019;DHT22;33786;48.690;9.562;2024-03-22T11:21:44;23.00;68.60
48019;DHT22;33786;48.690;9.562;2024-03-22T11:24:10;23.20;68.50
48019;DHT22;33786;48.690;9.562;2024-03-22T11:26:37;23.00;68.00
48019;DHT22;33786;48.690;9.562;2024-03-22T11:29:05;22.90;67.90
48019;DHT22;33786;48.690;9.562;2024-03-22T11:31:32;23.30;69.50
48019;DHT22;33786;48.690;9.562;2024-03-22T11:33:57;23.30;69.20
48019;DHT22;33786;48.690;9.562;2024-03-22T11:36:24;22.90;67.10
48019;DHT22;33786;48.690;9.562;2024-03-22T11:38:50;23.10;70.10
48019;DHT22;33786;48.690;9.562;2024-03-22T11:41:29;23.10;68.70
48019;DHT22;33786;48.690;9.562;2024-03-22T11:43:56;23.70;69.30
48019;DHT22;33786;48.690;9.562;2024-03-22T11:46:24;23.40;70.20
48019;DHT22;33786;48.690;9.562;2024-03-22T11:48:53;22.90;69.50
48019;DHT22;33786;48.690;9.562;2024-03-22T11:51:19;23.00;69.80
48019;DHT22;33786;48.690;9.562;2024-03-22T11:53:50;22.80;68.50
48019;DHT22;33786;48.690;9.562;2024-03-22T11:56:18;23.20;68.30
48019;DHT22;33786;48.690;9.562;2024-03-22T11:58:46;23.60;68.70
48019;DHT22;33786;48.690;9.562;2024-03-22T12:01:14;23.30;67.90
48019;DHT22;33786;48.690;9.562;2024-03-22T12:03:40;23.10;68.70
48019;DHT22;33786;48.690;9.562;2024-03-22T12:06:10;22.50;69.00
48019;DHT22;33786;48.690;9.562;2024-03-22T12:08:37;22.20;69.30
48019;DHT22;33786;48.690;9.562;2024-03-22T12:11:04;21.70;71.90
48019;DHT22;33786;48.690;9.562;2024-03-22T12:13:30;21.50;70.80
48019;DHT22;33786;48.690;9.562;2024-03-22T12:15:56;21.90;71.50
48019;DHT22;33786;48.690;9.562;2024-03-22T12:18:22;22.10;71.70
48019;DHT22;33786;48.690;9.562;2024-03-22T12:20:48;22.50;70.30
48019;DHT22;33786;48.690;9.562;2024-03-22T12:23:13;23.00;71.10
48019;DHT22;33786;48.690;9.562;2024-03-22T12:25:39;23.40;69.60
48019;DHT22;33786;48.690;9.562;2024-03-22T12:28:06;23.50;69.80
48019;DHT22;33786;48.690;9.562;2024-03-22T12:30:32;23.10;68.50
48019;DHT22;33786;48.690;9.562;2024-03-22T12:32:59;22.80;68.40
48019;DHT22;33786;48.690;9.562;2024-03-22T12:35:25;22.60;68.80
48019;DHT22;33786;48.690;9.562;2024-03-22T12:37:51;22.60;68.30
48019;DHT22;33786;48.690;9.562;2024-03-22T12:40:17;22.60;67.70
48019;DHT22;33786;48.690;9.562;2024-03-22T12:42:43;22.50;69.90
48019;DHT22;33786;48.690;9.562;2024-03-22T12:45:09;22.60;68.60
48019;DHT22;33786;48.690;9.562;2024-03-22T12:47:35;22.20;68.90
48019;DHT22;33786;48.690;9.562;2024-03-22T12:50:01;22.00;68.10
48019;DHT22;33786;48.690;9.562;2024-03-22T12:52:27;22.10;68.50
48019;DHT22;33786;48.690;9.562;2024-03-22T12:54:53;21.90;69.40
48019;DHT22;33786;48.690;9.562;2024-03-22T12:57:18;21.80;68.70
48019;DHT22;33786;48.690;9.562;2024-03-22T12:59:44;21.50;66.30
48019;DHT22;33786;48.690;9.562;2024-03-22T13:02:12;21.50;68.80
48019;DHT22;33786;48.690;9.562;2024-03-22T13:04:38;21.40;70.70
48019;DHT22;33786;48.690;9.562;2024-03-22T13:07:04;21.20;72.50
48019;DHT22;33786;48.690;9.562;2024-03-22T13:09:30;20.90;70.10
48019;DHT22;33786;48.690;9.562;2024-03-22T13:11:56;21.20;70.80
48019;DHT22;33786;48.690;9.562;2024-03-22T13:14:22;21.30;70.00
48019;DHT22;33786;48.690;9.562;2024-03-22T13:16:48;21.50;69.70
48019;DHT22;33786;48.690;9.562;2024-03-22T13:19:14;21.80;69.50
48019;DHT22;33786;48.690;9.562;2024-03-22T13:21:40;22.00;69.60
48019;DHT22;33786;48.690;9.562;2024-03-22T13:24:06;22.20;70.10
48019;DHT22;33786;48.690;9.562;2024-03-22T13:26:32;22.40;69.70
48019;DHT22;33786;48.690;9.562;2024-03-22T13:28:58;22.70;69.50
48019;DHT22;33786;48.690;9.562;2024-03-22T13:31:24;22.50;68.80
48019;DHT22;33786;48.690;9.562;2024-03-22T13:33:50;22.40;66.90
48019;DHT22;33786;48.690;9.562;2024-03-22T13:36:16;22.10;70.00
48019;DHT22;33786;48.690;9.562;2024-03-22T13:38:43;21.90;69.80
48019;DHT22;33786;48.690;9.562;2024-03-22T13:41:09;21.80;68.10
48019;DHT22;33786;48.690;9.562;2024-03-22T13:43:35;21.90;70.30
48019;DHT22;33786;48.690;9.562;2024-03-22T13:46:03;21.90;69.80
48019;DHT22;33786;48.690;9.562;2024-03-22T13:48:28;21.90;71.30
48019;DHT22;33786;48.690;9.562;2024-03-22T13:50:55;21.70;68.40
48019;DHT22;33786;48.690;9.562;2024-03-22T13:53:21;21.80;68.20
48019;DHT22;33786;48.690;9.562;2024-03-22T13:55:49;22.00;70.40
48019;DHT22;33786;48.690;9.562;2024-03-22T13:58:14;22.00;70.80
48019;DHT22;33786;48.690;9.562;2024-03-22T14:00:41;21.40;69.10
48019;DHT22;33786;48.690;9.562;2024-03-22T14:03:07;21.50;69.40
48019;DHT22;33786;48.690;9.562;2024-03-22T14:05:32;21.50;68.20
48019;DHT22;33786;48.690;9.562;2024-03-22T14:07:59;21.20;70.80
48019;DHT22;33786;48.690;9.562;2024-03-22T14:10:25;21.60;71.10
48019;DHT22;33786;48.690;9.562;2024-03-22T14:12:53;21.90;70.90
48019;DHT22;33786;48.690;9.562;2024-03-22T14:15:19;22.20;71.40
48019;DHT22;33786;48.690;9.562;2024-03-22T14:17:45;22.20;70.20
48019;DHT22;33786;48.690;9.562;2024-03-22T14:20:11;22.30;67.80
48019;DHT22;33786;48.690;9.562;2024-03-22T14:22:39;22.50;68.80
48019;DHT22;33786;48.690;9.562;2024-03-22T14:25:06;22.50;69.00
48019;DHT22;33786;48.690;9.562;2024-03-22T14:27:33;22.10;67.40
48019;DHT22;33786;48.690;9.562;2024-03-22T14:29:59;22.40;69.00
48019;DHT22;33786;48.690;9.562;2024-03-22T14:32:25;22.30;67.20
48019;DHT22;33786;48.690;9.562;2024-03-22T14:34:52;22.10;67.70
48019;DHT22;33786;48.690;9.562;2024-03-22T14:37:18;22.20;68.30
48019;DHT22;33786;48.690;9.562;2024-03-22T14:39:44;22.40;67.80
48019;DHT22;33786;48.690;9.562;2024-03-22T14:42:10;22.20;67.00
48019;DHT22;33786;48.690;9.562;2024-03-22T14:44:36;22.20;66.90
48019;DHT22;33786;48.690;9.562;2024-03-22T14:47:01;22.10;66.70
48019;DHT22;33786;48.690;9.562;2024-03-22T14:49:27;22.00;67.90
48019;DHT22;33786;48.690;9.562;2024-03-22T14:51:53;21.90;68.30
48019;DHT22;33786;48.690;9.562;2024-03-22T14:54:19;21.60;68.80
48019;DHT22;33786;48.690;9.562;2024-03-22T14:56:45;21.40;68.90
48019;DHT22;33786;48.690;9.562;2024-03-22T14:59:12;21.10;68.80
48019;DHT22;33786;48.690;9.562;2024-03-22T15:01:37;21.20;70.00
48019;DHT22;33786;48.690;9.562;2024-03-22T15:04:04;21.10;69.50
48019;DHT22;33786;48.690;9.562;2024-03-22T15:06:30;21.00;69.80
48019;DHT22;33786;48.690;9.562;2024-03-22T15:08:56;20.80;70.50
48019;DHT22;33786;48.690;9.562;2024-03-22T15:11:22;20.90;70.80
48019;DHT22;33786;48.690;9.562;2024-03-22T15:13:48;20.70;70.40
48019;DHT22;33786;48.690;9.562;2024-03-22T15:16:14;20.80;70.50
48019;DHT22;33786;48.690;9.562;2024-03-22T15:18:40;20.90;70.20
48019;DHT22;33786;48.690;9.562;2024-03-22T15:21:07;21.10;71.90
48019;DHT22;33786;48.690;9.562;2024-03-22T15:23:34;21.10;70.70
48019;DHT22;33786;48.690;9.562;2024-03-22T15:26:00;21.20;71.50
48019;DHT22;33786;48.690;9.562;2024-03-22T15:28:26;21.20;70.70
48019;DHT22;33786;48.690;9.562;2024-03-22T15:30:53;21.10;70.20
48019;DHT22;33786;48.690;9.562;2024-03-22T15:33:19;21.10;69.80